Observation data for Lamesa on 07/04/2020      Previous  Date  Next       Current Mesonet Observations  Soil Data  Daily Summary Page  Observations in Plain Language
KLES 040500Z 12008KT 29/09 A3006 RMK A01 T02880090  RH  030%=      5-min Rain = 0
KLES 040505Z 12008KT 29/09 A3006 RMK A01 T02860089  RH  030%=      5-min Rain = 0
KLES 040510Z 12007KT 28/09 A3006 RMK A01 T02840088  RH  030%=      5-min Rain = 0
KLES 040515Z 13007KT 28/09 A3006 RMK A01 T02820088  RH  031%=      5-min Rain = 0
KLES 040520Z 13007KT 28/09 A3006 RMK A01 T02800088  RH  031%=      5-min Rain = 0
KLES 040525Z 13007KT 28/09 A3006 RMK A01 T02770088  RH  031%=      5-min Rain = 0
KLES 040530Z 13007KT 28/09 A3006 RMK A01 T02750089  RH  032%=      5-min Rain = 0
KLES 040535Z 13006KT 27/09 A3006 RMK A01 T02740090  RH  033%=      5-min Rain = 0
KLES 040540Z 12006KT 27/09 A3006 RMK A01 T02720091  RH  033%=      5-min Rain = 0
KLES 040545Z 11006KT 27/09 A3006 RMK A01 T02690092  RH  034%=      5-min Rain = 0
KLES 040550Z 12005KT 27/09 A3006 RMK A01 T02680092  RH  034%=      5-min Rain = 0
KLES 040555Z 12005KT 27/09 A3005 RMK A01 T02670092  RH  034%=      5-min Rain = 0
KLES 040600Z 12005KT 27/09 A3005 RMK A01 T02660092  RH  035%=      5-min Rain = 0
KLES 040605Z 12005KT 26/09 A3005 RMK A01 T02640093  RH  035%=      5-min Rain = 0
KLES 040610Z 11005KT 26/09 A3005 RMK A01 T02610093  RH  036%=      5-min Rain = 0
KLES 040615Z 12006KT 26/09 A3005 RMK A01 T02600093  RH  036%=      5-min Rain = 0
KLES 040620Z 12006KT 26/09 A3005 RMK A01 T02600094  RH  036%=      5-min Rain = 0
KLES 040625Z 11005KT 26/09 A3005 RMK A01 T02590094  RH  036%=      5-min Rain = 0
KLES 040630Z 11006KT 26/09 A3005 RMK A01 T02580094  RH  037%=      5-min Rain = 0
KLES 040635Z 11005KT 26/09 A3005 RMK A01 T02570094  RH  037%=      5-min Rain = 0
KLES 040640Z 11005KT 26/10 A3005 RMK A01 T02560095  RH  037%=      5-min Rain = 0
KLES 040645Z 11004KT 26/10 A3005 RMK A01 T02550095  RH  038%=      5-min Rain = 0
KLES 040650Z 12003KT 25/10 A3005 RMK A01 T02540095  RH  038%=      5-min Rain = 0
KLES 040655Z 12003KT 25/10 A3005 RMK A01 T02530096  RH  038%=      5-min Rain = 0
KLES 040700Z 13003KT 25/10 A3005 RMK A01 T02520096  RH  039%=      5-min Rain = 0
KLES 040705Z 13004KT 25/10 A3005 RMK A01 T02500097  RH  039%=      5-min Rain = 0
KLES 040710Z 13005KT 25/10 A3005 RMK A01 T02490097  RH  039%=      5-min Rain = 0
KLES 040715Z 13004KT 25/10 A3004 RMK A01 T02490097  RH  040%=      5-min Rain = 0
KLES 040720Z 14003KT 25/10 A3004 RMK A01 T02490097  RH  040%=      5-min Rain = 0
KLES 040725Z 15004KT 25/10 A3004 RMK A01 T02470098  RH  040%=      5-min Rain = 0
KLES 040730Z 15005KT 25/10 A3004 RMK A01 T02450100  RH  041%=      5-min Rain = 0
KLES 040735Z 15004KT 24/10 A3004 RMK A01 T02440100  RH  041%=      5-min Rain = 0
KLES 040740Z 15003KT 24/10 A3004 RMK A01 T02430100  RH  042%=      5-min Rain = 0
KLES 040745Z 15003KT 24/10 A3004 RMK A01 T02410102  RH  043%=      5-min Rain = 0
KLES 040750Z 16003KT 24/10 A3004 RMK A01 T02390102  RH  044%=      5-min Rain = 0
KLES 040755Z 16003KT 24/10 A3004 RMK A01 T02380104  RH  044%=      5-min Rain = 0
KLES 040800Z 16003KT 24/11 A3004 RMK A01 T02370105  RH  045%=      5-min Rain = 0
KLES 040805Z 17003KT 24/10 A3004 RMK A01 T02370104  RH  045%=      5-min Rain = 0
KLES 040810Z 18003KT 24/10 A3004 RMK A01 T02390101  RH  043%=      5-min Rain = 0
KLES 040815Z 19004KT 24/10 A3005 RMK A01 T02400103  RH  043%=      5-min Rain = 0
KLES 040820Z 19005KT 24/10 A3005 RMK A01 T02390103  RH  044%=      5-min Rain = 0
KLES 040825Z 19005KT 24/11 A3004 RMK A01 T02360105  RH  045%=      5-min Rain = 0
KLES 040830Z 20005KT 24/11 A3004 RMK A01 T02360106  RH  045%=      5-min Rain = 0
KLES 040835Z 20005KT 24/11 A3004 RMK A01 T02370107  RH  045%=      5-min Rain = 0
KLES 040840Z 20004KT 24/11 A3005 RMK A01 T02370106  RH  045%=      5-min Rain = 0
KLES 040845Z 19002KT 24/11 A3005 RMK A01 T02360105  RH  045%=      5-min Rain = 0
KLES 040850Z 19000KT 23/11 A3005 RMK A01 T02340105  RH  045%=      5-min Rain = 0
KLES 040855Z 19000KT 23/10 A3005 RMK A01 T02340104  RH  046%=      5-min Rain = 0
KLES 040900Z 19001KT 23/11 A3006 RMK A01 T02320105  RH  046%=      5-min Rain = 0
KLES 040905Z 19001KT 23/10 A3006 RMK A01 T02300104  RH  046%=      5-min Rain = 0
KLES 040910Z 19000KT 23/10 A3006 RMK A01 T02270103  RH  047%=      5-min Rain = 0
KLES 040915Z 19000KT 23/10 A3006 RMK A01 T02250103  RH  047%=      5-min Rain = 0
KLES 040920Z 00000KT 23/10 A3006 RMK A01 T02250102  RH  047%=      5-min Rain = 0
KLES 040925Z 00000KT 23/10 A3006 RMK A01 T02260103  RH  047%=      5-min Rain = 0
KLES 040930Z 00000KT 23/10 A3006 RMK A01 T02260101  RH  047%=      5-min Rain = 0
KLES 040935Z 00000KT 22/10 A3006 RMK A01 T02240103  RH  048%=      5-min Rain = 0
KLES 040940Z 00000KT 23/11 A3006 RMK A01 T02270106  RH  048%=      5-min Rain = 0
KLES 040945Z 00000KT 23/11 A3006 RMK A01 T02280107  RH  048%=      5-min Rain = 0
KLES 040950Z 00000KT 23/11 A3006 RMK A01 T02270108  RH  049%=      5-min Rain = 0
KLES 040955Z 22000KT 23/11 A3006 RMK A01 T02260107  RH  049%=      5-min Rain = 0
KLES 041000Z 22000KT 22/11 A3006 RMK A01 T02240106  RH  049%=      5-min Rain = 0
KLES 041005Z 22001KT 22/11 A3006 RMK A01 T02210106  RH  049%=      5-min Rain = 0
KLES 041010Z 21001KT 22/11 A3006 RMK A01 T02180107  RH  051%=      5-min Rain = 0
KLES 041015Z 19001KT 22/11 A3006 RMK A01 T02160110  RH  053%=      5-min Rain = 0
KLES 041020Z 19001KT 21/11 A3006 RMK A01 T02130111  RH  054%=      5-min Rain = 0
KLES 041025Z 19001KT 21/11 A3006 RMK A01 T02120110  RH  054%=      5-min Rain = 0
KLES 041030Z 00000KT 21/11 A3006 RMK A01 T02110108  RH  054%=      5-min Rain = 0
KLES 041035Z 00000KT 21/11 A3005 RMK A01 T02090107  RH  054%=      5-min Rain = 0
KLES 041040Z 19000KT 21/11 A3005 RMK A01 T02090108  RH  054%=      5-min Rain = 0
KLES 041045Z 19000KT 21/11 A3006 RMK A01 T02090109  RH  055%=      5-min Rain = 0
KLES 041050Z 00000KT 21/11 A3006 RMK A01 T02090109  RH  054%=      5-min Rain = 0
KLES 041055Z 00000KT 21/11 A3006 RMK A01 T02100109  RH  054%=      5-min Rain = 0
KLES 041100Z 19000KT 21/11 A3005 RMK A01 T02090109  RH  055%=      5-min Rain = 0
KLES 041105Z 19000KT 21/11 A3006 RMK A01 T02100110  RH  054%=      5-min Rain = 0
KLES 041110Z 19000KT 22/12 A3006 RMK A01 T02150115  RH  055%=      5-min Rain = 0
KLES 041115Z 19001KT 22/12 A3006 RMK A01 T02160117  RH  055%=      5-min Rain = 0
KLES 041120Z 19001KT 22/12 A3006 RMK A01 T02170115  RH  054%=      5-min Rain = 0
KLES 041125Z 19001KT 22/11 A3006 RMK A01 T02170114  RH  054%=      5-min Rain = 0
KLES 041130Z 19000KT 22/11 A3006 RMK A01 T02180114  RH  054%=      5-min Rain = 0
KLES 041135Z 19001KT 22/11 A3007 RMK A01 T02200114  RH  053%=      5-min Rain = 0
KLES 041140Z 19002KT 22/11 A3007 RMK A01 T02200113  RH  053%=      5-min Rain = 0
KLES 041145Z 19002KT 22/11 A3007 RMK A01 T02180112  RH  053%=      5-min Rain = 0
KLES 041150Z 19002KT 21/11 A3007 RMK A01 T02140113  RH  055%=      5-min Rain = 0
KLES 041155Z 19001KT 21/12 A3007 RMK A01 T02090116  RH  057%=      5-min Rain = 0
KLES 041200Z 19001KT 21/12 A3007 RMK A01 T02070116  RH  058%=      5-min Rain = 0
KLES 041205Z 19002KT 21/12 A3007 RMK A01 T02070115  RH  058%=      5-min Rain = 0
KLES 041210Z 19003KT 21/11 A3007 RMK A01 T02100114  RH  056%=      5-min Rain = 0
KLES 041215Z 19003KT 21/11 A3007 RMK A01 T02130114  RH  055%=      5-min Rain = 0
KLES 041220Z 19003KT 22/11 A3007 RMK A01 T02150114  RH  054%=      5-min Rain = 0
KLES 041225Z 01004KT 22/11 A3007 RMK A01 T02180114  RH  053%=      5-min Rain = 0
KLES 041230Z 01002KT 22/12 A3007 RMK A01 T02210116  RH  053%=      5-min Rain = 0
KLES 041235Z 00003KT 23/12 A3007 RMK A01 T02250118  RH  053%=      5-min Rain = 0
KLES 041240Z 36003KT 23/12 A3007 RMK A01 T02300119  RH  052%=      5-min Rain = 0
KLES 041245Z 35003KT 23/12 A3008 RMK A01 T02340120  RH  050%=      5-min Rain = 0
KLES 041250Z 35003KT 24/12 A3008 RMK A01 T02380119  RH  049%=      5-min Rain = 0
KLES 041255Z 34003KT 24/12 A3008 RMK A01 T02430120  RH  048%=      5-min Rain = 0
KLES 041300Z 33004KT 25/12 A3008 RMK A01 T02490119  RH  046%=      5-min Rain = 0
KLES 041305Z 33004KT 25/12 A3008 RMK A01 T02530116  RH  044%=      5-min Rain = 0
KLES 041310Z 33005KT 26/11 A3008 RMK A01 T02580110  RH  041%=      5-min Rain = 0
KLES 041315Z 33005KT 26/11 A3008 RMK A01 T02610111  RH  040%=      5-min Rain = 0
KLES 041320Z 34006KT 26/11 A3008 RMK A01 T02630111  RH  040%=      5-min Rain = 0
KLES 041325Z 34004KT 27/11 A3008 RMK A01 T02660114  RH  040%=      5-min Rain = 0
KLES 041330Z 35004KT 27/12 A3008 RMK A01 T02710116  RH  039%=      5-min Rain = 0
KLES 041335Z 33005KT 27/12 A3008 RMK A01 T02740116  RH  039%=      5-min Rain = 0
KLES 041340Z 33005KT 28/12 A3008 RMK A01 T02760116  RH  038%=      5-min Rain = 0
KLES 041345Z 33006KT 28/12 A3008 RMK A01 T02780117  RH  038%=      5-min Rain = 0
KLES 041350Z 32006KT 28/12 A3008 RMK A01 T02800117  RH  038%=      5-min Rain = 0
KLES 041355Z 33005KT 28/12 A3008 RMK A01 T02830117  RH  037%=      5-min Rain = 0
KLES 041400Z 33006KT 29/12 A3008 RMK A01 T02870117  RH  036%=      5-min Rain = 0
KLES 041405Z 35005KT 29/12 A3008 RMK A01 T02880119  RH  037%=      5-min Rain = 0
KLES 041410Z 34005KT 29/12 A3008 RMK A01 T02900121  RH  036%=      5-min Rain = 0
KLES 041415Z 35004KT 29/12 A3008 RMK A01 T02940122  RH  036%=      5-min Rain = 0
KLES 041420Z 33004KT 30/12 A3008 RMK A01 T02980121  RH  035%=      5-min Rain = 0
KLES 041425Z 34005KT 30/12 A3008 RMK A01 T02990122  RH  035%=      5-min Rain = 0
KLES 041430Z 32005KT 30/12 A3008 RMK A01 T02990123  RH  035%=      5-min Rain = 0
KLES 041435Z 34004KT 30/12 A3008 RMK A01 T03000124  RH  035%=      5-min Rain = 0
KLES 041440Z 32004KT 30/13 A3008 RMK A01 T03020125  RH  035%=      5-min Rain = 0
KLES 041445Z 31005G10KT 30/12 A3008 RMK A01 T03030124  RH  035%=      5-min Rain = 0
KLES 041450Z 31006KT 30/13 A3008 RMK A01 T03000125  RH  036%=      5-min Rain = 0
KLES 041455Z 28007KT 30/12 A3008 RMK A01 T02990124  RH  035%=      5-min Rain = 0
KLES 041500Z 29008KT 30/12 A3008 RMK A01 T02990124  RH  035%=      5-min Rain = 0
KLES 041505Z 28005G10KT 30/13 A3008 RMK A01 T02990126  RH  036%=      5-min Rain = 0
KLES 041510Z 27007KT 30/13 A3008 RMK A01 T03010126  RH  035%=      5-min Rain = 0
KLES 041515Z 28008KT 30/13 A3008 RMK A01 T03010127  RH  036%=      5-min Rain = 0
KLES 041520Z 28008KT 30/13 A3008 RMK A01 T03000127  RH  036%=      5-min Rain = 0
KLES 041525Z 27007KT 30/13 A3008 RMK A01 T03030127  RH  035%=      5-min Rain = 0
KLES 041530Z 28008KT 30/13 A3008 RMK A01 T03040129  RH  036%=      5-min Rain = 0
KLES 041535Z 27008KT 31/13 A3008 RMK A01 T03090127  RH  034%=      5-min Rain = 0
KLES 041540Z 28006G12KT 31/13 A3008 RMK A01 T03070127  RH  035%=      5-min Rain = 0
KLES 041545Z 30008KT 31/13 A3008 RMK A01 T03100129  RH  034%=      5-min Rain = 0
KLES 041550Z 30011KT 31/13 A3007 RMK A01 T03130125  RH  033%=      5-min Rain = 0
KLES 041555Z 30009G14KT 31/12 A3007 RMK A01 T03100124  RH  033%=      5-min Rain = 0
KLES 041600Z 31007KT 31/13 A3008 RMK A01 T03050127  RH  035%=      5-min Rain = 0
KLES 041605Z 31010KT 31/13 A3008 RMK A01 T03070130  RH  035%=      5-min Rain = 0
KLES 041610Z 31009KT 30/13 A3008 RMK A01 T03040129  RH  036%=      5-min Rain = 0
KLES 041615Z 29009KT 30/13 A3008 RMK A01 T03020128  RH  036%=      5-min Rain = 0
KLES 041620Z 31006KT 30/13 A3008 RMK A01 T03000130  RH  037%=      5-min Rain = 0
KLES 041625Z 33006G12KT 31/13 A3009 RMK A01 T03050127  RH  035%=      5-min Rain = 0
KLES 041630Z 31005KT 31/13 A3009 RMK A01 T03060127  RH  035%=      5-min Rain = 0
KLES 041635Z 30006KT 30/13 A3009 RMK A01 T03040127  RH  035%=      5-min Rain = 0
KLES 041640Z 31007G12KT 31/13 A3009 RMK A01 T03060128  RH  035%=      5-min Rain = 0
KLES 041645Z 33005KT 31/13 A3009 RMK A01 T03120126  RH  033%=      5-min Rain = 0
KLES 041650Z 28005KT 31/13 A3008 RMK A01 T03130126  RH  033%=      5-min Rain = 0
KLES 041655Z 32007KT 31/13 A3009 RMK A01 T03140126  RH  033%=      5-min Rain = 0
KLES 041700Z 29005G10KT 32/13 A3009 RMK A01 T03150126  RH  033%=      5-min Rain = 0
KLES 041705Z 29006KT 31/13 A3009 RMK A01 T03130126  RH  033%=      5-min Rain = 0
KLES 041710Z 30005KT 31/13 A3009 RMK A01 T03120125  RH  033%=      5-min Rain = 0
KLES 041715Z 28006KT 32/13 A3009 RMK A01 T03160126  RH  033%=      5-min Rain = 0
KLES 041720Z 29003KT 31/13 A3009 RMK A01 T03140126  RH  033%=      5-min Rain = 0
KLES 041725Z 22003KT 32/13 A3008 RMK A01 T03180126  RH  032%=      5-min Rain = 0
KLES 041730Z 25004KT 32/13 A3008 RMK A01 T03210126  RH  032%=      5-min Rain = 0
KLES 041735Z 25004KT 33/13 A3008 RMK A01 T03250128  RH  031%=      5-min Rain = 0
KLES 041740Z 32004G9KT 33/13 A3008 RMK A01 T03270126  RH  031%=      5-min Rain = 0
KLES 041745Z 34005KT 33/12 A3008 RMK A01 T03340124  RH  029%=      5-min Rain = 0
KLES 041750Z 32004KT 33/12 A3008 RMK A01 T03330124  RH  029%=      5-min Rain = 0
KLES 041755Z 32003KT 34/13 A3008 RMK A01 T03360126  RH  029%=      5-min Rain = 0
KLES 041800Z 28006KT 34/12 A3007 RMK A01 T03360121  RH  028%=      5-min Rain = 0
KLES 041805Z 26006KT 34/12 A3007 RMK A01 T03350116  RH  027%=      5-min Rain = 0
KLES 041810Z 26005KT 33/11 A3007 RMK A01 T03340110  RH  026%=      5-min Rain = 0
KLES 041815Z 29003KT 33/12 A3007 RMK A01 T03340116  RH  028%=      5-min Rain = 0
KLES 041820Z 25004KT 34/12 A3007 RMK A01 T03380120  RH  028%=      5-min Rain = 0
KLES 041825Z 22002KT 34/12 A3007 RMK A01 T03440117  RH  026%=      5-min Rain = 0
KLES 041830Z 04002KT 34/12 A3007 RMK A01 T03440116  RH  026%=      5-min Rain = 0
KLES 041835Z 09003KT 34/11 A3006 RMK A01 T03430114  RH  026%=      5-min Rain = 0
KLES 041840Z 08002KT 34/11 A3006 RMK A01 T03410111  RH  026%=      5-min Rain = 0
KLES 041845Z 10006G12KT 35/10 A3006 RMK A01 T03470104  RH  024%=      5-min Rain = 0
KLES 041850Z 09007G12KT 35/10 A3006 RMK A01 T03510104  RH  023%=      5-min Rain = 0
KLES 041855Z 17004KT 35/10 A3006 RMK A01 T03490102  RH  023%=      5-min Rain = 0
KLES 041900Z 17004KT 35/10 A3005 RMK A01 T03480102  RH  023%=      5-min Rain = 0
KLES 041905Z 10004G9KT 35/10 A3005 RMK A01 T03500103  RH  023%=      5-min Rain = 0
KLES 041910Z 06007G14KT 35/10 A3005 RMK A01 T03540103  RH  023%=      5-min Rain = 0
KLES 041915Z 10006KT 35/10 A3005 RMK A01 T03500102  RH  023%=      5-min Rain = 0
KLES 041920Z 12004G11KT 35/10 A3004 RMK A01 T03500100  RH  023%=      5-min Rain = 0
KLES 041925Z 12004KT 35/10 A3004 RMK A01 T03500099  RH  022%=      5-min Rain = 0
KLES 041930Z 14002KT 35/10 A3004 RMK A01 T03480099  RH  023%=      5-min Rain = 0
KLES 041935Z 16005KT 35/10 A3004 RMK A01 T03530099  RH  022%=      5-min Rain = 0
KLES 041940Z 17006KT 36/10 A3004 RMK A01 T03550099  RH  022%=      5-min Rain = 0
KLES 041945Z 23003KT 35/10 A3003 RMK A01 T03500099  RH  022%=      5-min Rain = 0
KLES 041950Z 10006G11KT 35/10 A3003 RMK A01 T03490099  RH  023%=      5-min Rain = 0
KLES 041955Z 11004G10KT 35/10 A3003 RMK A01 T03490095  RH  022%=      5-min Rain = 0
KLES 042000Z 31001KT 35/09 A3003 RMK A01 T03500093  RH  022%=      5-min Rain = 0
KLES 042005Z 24002KT 35/09 A3003 RMK A01 T03500094  RH  022%=      5-min Rain = 0
KLES 042010Z 13004G11KT 36/10 A3002 RMK A01 T03560098  RH  021%=      5-min Rain = 0
KLES 042015Z 15005KT 36/10 A3002 RMK A01 T03580098  RH  021%=      5-min Rain = 0
KLES 042020Z 15004G10KT 36/10 A3002 RMK A01 T03610097  RH  021%=      5-min Rain = 0
KLES 042025Z 28002KT 36/10 A3002 RMK A01 T03570097  RH  021%=      5-min Rain = 0
KLES 042030Z 27004KT 36/10 A3001 RMK A01 T03570095  RH  021%=      5-min Rain = 0
KLES 042035Z 19004G9KT 36/10 A3001 RMK A01 T03600095  RH  021%=      5-min Rain = 0
KLES 042040Z 20008KT 36/09 A3001 RMK A01 T03630092  RH  020%=      5-min Rain = 0
KLES 042045Z 17007KT 37/09 A3001 RMK A01 T03660093  RH  020%=      5-min Rain = 0
KLES 042050Z 21005KT 37/09 A30 RMK A01 T03670094  RH  020%=      5-min Rain = 0
KLES 042055Z 26005G12KT 36/09 A30 RMK A01 T03640093  RH  020%=      5-min Rain = 0
KLES 042100Z 23005KT 36/09 A30 RMK A01 T03610093  RH  020%=      5-min Rain = 0
KLES 042105Z 18005G10KT 36/09 A30 RMK A01 T03640092  RH  020%=      5-min Rain = 0
KLES 042110Z 19004KT 37/09 A2999 RMK A01 T03650091  RH  020%=      5-min Rain = 0
KLES 042115Z 18004KT 36/09 A2999 RMK A01 T03630090  RH  020%=      5-min Rain = 0
KLES 042120Z 15005G11KT 37/09 A2999 RMK A01 T03650091  RH  019%=      5-min Rain = 0
KLES 042125Z 11006KT 37/10 A2999 RMK A01 T03680095  RH  020%=      5-min Rain = 0
KLES 042130Z 12004KT 37/10 A2998 RMK A01 T03670095  RH  020%=      5-min Rain = 0
KLES 042135Z 14004G9KT 37/09 A2998 RMK A01 T03690093  RH  019%=      5-min Rain = 0
KLES 042140Z 14006KT 36/09 A2998 RMK A01 T03640093  RH  020%=      5-min Rain = 0
KLES 042145Z 14005KT 36/09 A2998 RMK A01 T03640093  RH  020%=      5-min Rain = 0
KLES 042150Z 17004KT 36/09 A2997 RMK A01 T03620093  RH  020%=      5-min Rain = 0
KLES 042155Z 19002KT 36/09 A2997 RMK A01 T03590093  RH  020%=      5-min Rain = 0
KLES 042200Z 19004G9KT 36/09 A2997 RMK A01 T03600094  RH  020%=      5-min Rain = 0
KLES 042205Z 22004KT 36/09 A2997 RMK A01 T03580093  RH  021%=      5-min Rain = 0
KLES 042210Z 22003KT 36/09 A2996 RMK A01 T03570093  RH  021%=      5-min Rain = 0
KLES 042215Z 08003G10KT 36/09 A2996 RMK A01 T03580094  RH  021%=      5-min Rain = 0
KLES 042220Z 07005KT 36/09 A2996 RMK A01 T03620094  RH  020%=      5-min Rain = 0
KLES 042225Z 08005G10KT 37/09 A2996 RMK A01 T03660092  RH  020%=      5-min Rain = 0
KLES 042230Z 10006G11KT 37/09 A2995 RMK A01 T03650090  RH  019%=      5-min Rain = 0
KLES 042235Z 09007KT 37/09 A2995 RMK A01 T03670090  RH  019%=      5-min Rain = 0
KLES 042240Z 11006G11KT 37/09 A2995 RMK A01 T03680090  RH  019%=      5-min Rain = 0
KLES 042245Z 13005KT 37/09 A2995 RMK A01 T03680089  RH  019%=      5-min Rain = 0
KLES 042250Z 14005KT 37/09 A2995 RMK A01 T03650089  RH  019%=      5-min Rain = 0
KLES 042255Z 15007KT 37/09 A2995 RMK A01 T03680087  RH  019%=      5-min Rain = 0
KLES 042300Z 18005G10KT 37/09 A2995 RMK A01 T03660085  RH  019%=      5-min Rain = 0
KLES 042305Z 18007G13KT 37/09 A2994 RMK A01 T03690085  RH  018%=      5-min Rain = 0
KLES 042310Z 21007KT 37/09 A2994 RMK A01 T03690086  RH  018%=      5-min Rain = 0
KLES 042315Z 24005KT 37/09 A2994 RMK A01 T03670086  RH  019%=      5-min Rain = 0
KLES 042320Z 21003KT 37/09 A2993 RMK A01 T03660085  RH  019%=      5-min Rain = 0
KLES 042325Z 19002KT 37/08 A2993 RMK A01 T03660084  RH  018%=      5-min Rain = 0
KLES 042330Z 11005G10KT 37/08 A2993 RMK A01 T03670082  RH  018%=      5-min Rain = 0
KLES 042335Z 11005G10KT 36/08 A2993 RMK A01 T03630083  RH  019%=      5-min Rain = 0
KLES 042340Z 15005G11KT 36/08 A2992 RMK A01 T03640083  RH  019%=      5-min Rain = 0
KLES 042345Z 14007KT 37/08 A2993 RMK A01 T03660083  RH  018%=      5-min Rain = 0
KLES 042350Z 14008KT 37/08 A2992 RMK A01 T03670083  RH  018%=      5-min Rain = 0
KLES 042355Z 15008KT 37/08 A2992 RMK A01 T03670082  RH  018%=      5-min Rain = 0
KLES 050000Z 18008KT 37/08 A2992 RMK A01 T03650082  RH  018%=      5-min Rain = 0
KLES 050005Z 16006KT 37/08 A2992 RMK A01 T03650082  RH  018%=      5-min Rain = 0
KLES 050010Z 15008KT 36/08 A2992 RMK A01 T03630082  RH  019%=      5-min Rain = 0
KLES 050015Z 16007KT 36/08 A2992 RMK A01 T03620081  RH  018%=      5-min Rain = 0
KLES 050020Z 15005KT 36/08 A2993 RMK A01 T03630081  RH  018%=      5-min Rain = 0
KLES 050025Z 14006KT 36/08 A2993 RMK A01 T03630081  RH  018%=      5-min Rain = 0
KLES 050030Z 12004KT 36/08 A2993 RMK A01 T03610080  RH  018%=      5-min Rain = 0
KLES 050035Z 13004KT 36/08 A2993 RMK A01 T03600081  RH  019%=      5-min Rain = 0
KLES 050040Z 13003KT 36/08 A2993 RMK A01 T03590080  RH  019%=      5-min Rain = 0
KLES 050045Z 13002KT 36/08 A2993 RMK A01 T03600080  RH  019%=      5-min Rain = 0
KLES 050050Z 14003KT 36/08 A2993 RMK A01 T03610081  RH  019%=      5-min Rain = 0
KLES 050055Z 13004KT 36/08 A2993 RMK A01 T03610081  RH  019%=      5-min Rain = 0
KLES 050100Z 14004KT 36/08 A2993 RMK A01 T03590082  RH  019%=      5-min Rain = 0
KLES 050105Z 14002KT 36/08 A2993 RMK A01 T03600082  RH  019%=      5-min Rain = 0
KLES 050110Z 12003KT 36/08 A2993 RMK A01 T03580082  RH  019%=      5-min Rain = 0
KLES 050115Z 16005KT 36/09 A2993 RMK A01 T03560086  RH  020%=      5-min Rain = 0
KLES 050120Z 18003KT 35/09 A2994 RMK A01 T03540085  RH  020%=      5-min Rain = 0
KLES 050125Z 16007G12KT 35/09 A2994 RMK A01 T03520085  RH  020%=      5-min Rain = 0
KLES 050130Z 12004KT 35/08 A2994 RMK A01 T03520081  RH  020%=      5-min Rain = 0
KLES 050135Z 16005KT 35/09 A2994 RMK A01 T03510086  RH  020%=      5-min Rain = 0
KLES 050140Z 15004KT 35/09 A2994 RMK A01 T03500089  RH  021%=      5-min Rain = 0
KLES 050145Z 14005KT 35/09 A2994 RMK A01 T03490089  RH  021%=      5-min Rain = 0
KLES 050150Z 15005KT 35/09 A2995 RMK A01 T03470090  RH  021%=      5-min Rain = 0
KLES 050155Z 13004KT 35/09 A2995 RMK A01 T03450092  RH  022%=      5-min Rain = 0
KLES 050200Z 12005KT 34/09 A2995 RMK A01 T03420088  RH  022%=      5-min Rain = 0
KLES 050205Z 13007KT 34/09 A2995 RMK A01 T03400092  RH  023%=      5-min Rain = 0
KLES 050210Z 12007KT 34/10 A2996 RMK A01 T03380096  RH  023%=      5-min Rain = 0
KLES 050215Z 12006KT 34/10 A2996 RMK A01 T03360097  RH  024%=      5-min Rain = 0
KLES 050220Z 12006KT 33/10 A2996 RMK A01 T03340097  RH  024%=      5-min Rain = 0
KLES 050225Z 12006KT 33/10 A2996 RMK A01 T03320096  RH  024%=      5-min Rain = 0
KLES 050230Z 12007KT 33/10 A2996 RMK A01 T03310096  RH  024%=      5-min Rain = 0
KLES 050235Z 13006KT 33/10 A2996 RMK A01 T03290096  RH  025%=      5-min Rain = 0
KLES 050240Z 12006KT 33/10 A2996 RMK A01 T03250095  RH  025%=      5-min Rain = 0
KLES 050245Z 12006KT 32/10 A2996 RMK A01 T03230095  RH  025%=      5-min Rain = 0
KLES 050250Z 12006KT 32/10 A2996 RMK A01 T03200095  RH  026%=      5-min Rain = 0
KLES 050255Z 12006KT 32/10 A2996 RMK A01 T03180095  RH  026%=      5-min Rain = 0
KLES 050300Z 12006KT 32/10 A2996 RMK A01 T03160095  RH  026%=      5-min Rain = 0
KLES 050305Z 12006KT 32/10 A2996 RMK A01 T03150095  RH  027%=      5-min Rain = 0
KLES 050310Z 11006KT 31/10 A2996 RMK A01 T03130095  RH  027%=      5-min Rain = 0
KLES 050315Z 11006KT 31/10 A2997 RMK A01 T03110095  RH  027%=      5-min Rain = 0
KLES 050320Z 11006KT 31/10 A2997 RMK A01 T03120095  RH  027%=      5-min Rain = 0
KLES 050325Z 11006KT 31/10 A2997 RMK A01 T03120096  RH  027%=      5-min Rain = 0
KLES 050330Z 12006KT 31/10 A2997 RMK A01 T03110096  RH  027%=      5-min Rain = 0
KLES 050335Z 12006KT 31/10 A2997 RMK A01 T03100095  RH  027%=      5-min Rain = 0
KLES 050340Z 12006KT 31/10 A2997 RMK A01 T03090095  RH  027%=      5-min Rain = 0
KLES 050345Z 12007KT 31/10 A2997 RMK A01 T03070095  RH  028%=      5-min Rain = 0
KLES 050350Z 13007KT 30/10 A2998 RMK A01 T03040095  RH  028%=      5-min Rain = 0
KLES 050355Z 13007KT 30/10 A2998 RMK A01 T03030095  RH  028%=      5-min Rain = 0
KLES 050400Z 13007KT 30/10 A2997 RMK A01 T03010096  RH  029%=      5-min Rain = 0
KLES 050405Z 13007KT 30/10 A2997 RMK A01 T03010095  RH  029%=      5-min Rain = 0
KLES 050410Z 14008KT 30/10 A2997 RMK A01 T03010095  RH  029%=      5-min Rain = 0
KLES 050415Z 14008KT 30/10 A2997 RMK A01 T03020095  RH  028%=      5-min Rain = 0
KLES 050420Z 15008KT 30/09 A2997 RMK A01 T03020093  RH  028%=      5-min Rain = 0
KLES 050425Z 14008KT 30/09 A2997 RMK A01 T03000093  RH  028%=      5-min Rain = 0
KLES 050430Z 14009KT 30/09 A2997 RMK A01 T02990093  RH  029%=      5-min Rain = 0
KLES 050435Z 15009KT 30/09 A2996 RMK A01 T02980092  RH  029%=      5-min Rain = 0
KLES 050440Z 15009KT 30/09 A2996 RMK A01 T02960093  RH  029%=      5-min Rain = 0
KLES 050445Z 15008KT 29/09 A2996 RMK A01 T02940094  RH  030%=      5-min Rain = 0
KLES 050450Z 15009KT 29/10 A2996 RMK A01 T02930095  RH  030%=      5-min Rain = 0
KLES 050455Z 15009KT 29/10 A2996 RMK A01 T02930097  RH  030%=      5-min Rain = 0

Page generated in 0.0093 seconds.